sensor_id;sensor_type;location;lat;lon;timestamp;temperature;humidity
7360;DHT22;3720;48.274;7.796;2024-03-23T00:53:59;14.70;99.90
7360;DHT22;3720;48.274;7.796;2024-03-23T00:56:30;14.70;99.90
7360;DHT22;3720;48.274;7.796;2024-03-23T00:59:02;14.80;99.90
7360;DHT22;3720;48.274;7.796;2024-03-23T01:01:33;14.70;99.90
7360;DHT22;3720;48.274;7.796;2024-03-23T01:04:05;14.70;99.90
7360;DHT22;3720;48.274;7.796;2024-03-23T01:06:35;14.70;99.90
7360;DHT22;3720;48.274;7.796;2024-03-23T01:09:09;14.70;99.90
7360;DHT22;3720;48.274;7.796;2024-03-23T01:11:41;14.80;99.90
7360;DHT22;3720;48.274;7.796;2024-03-23T01:14:13;14.80;99.90
7360;DHT22;3720;48.274;7.796;2024-03-23T01:16:43;14.90;99.90
7360;DHT22;3720;48.274;7.796;2024-03-23T01:19:15;14.90;99.90
7360;DHT22;3720;48.274;7.796;2024-03-23T01:21:46;15.00;99.90
7360;DHT22;3720;48.274;7.796;2024-03-23T01:24:21;15.00;99.90
7360;DHT22;3720;48.274;7.796;2024-03-23T01:26:52;15.00;99.90
7360;DHT22;3720;48.274;7.796;2024-03-23T01:29:23;15.00;99.90
7360;DHT22;3720;48.274;7.796;2024-03-23T01:31:54;15.00;99.90
7360;DHT22;3720;48.274;7.796;2024-03-23T01:34:26;15.00;99.90
7360;DHT22;3720;48.274;7.796;2024-03-23T01:36:58;14.90;99.90
7360;DHT22;3720;48.274;7.796;2024-03-23T01:39:31;14.90;99.90
7360;DHT22;3720;48.274;7.796;2024-03-23T01:42:03;14.90;99.90
7360;DHT22;3720;48.274;7.796;2024-03-23T01:44:34;14.80;99.90
7360;DHT22;3720;48.274;7.796;2024-03-23T01:47:06;14.70;99.90
7360;DHT22;3720;48.274;7.796;2024-03-23T01:49:37;14.70;99.90
7360;DHT22;3720;48.274;7.796;2024-03-23T01:52:09;14.70;99.90
7360;DHT22;3720;48.274;7.796;2024-03-23T01:54:42;14.60;99.90
7360;DHT22;3720;48.274;7.796;2024-03-23T01:57:14;14.60;99.90
7360;DHT22;3720;48.274;7.796;2024-03-23T01:59:45;14.60;99.90
7360;DHT22;3720;48.274;7.796;2024-03-23T02:02:16;14.60;99.90
7360;DHT22;3720;48.274;7.796;2024-03-23T02:04:49;14.50;99.90
7360;DHT22;3720;48.274;7.796;2024-03-23T02:07:20;14.40;99.90
7360;DHT22;3720;48.274;7.796;2024-03-23T02:09:53;14.20;99.90
7360;DHT22;3720;48.274;7.796;2024-03-23T02:12:25;14.00;99.90
7360;DHT22;3720;48.274;7.796;2024-03-23T02:14:56;14.00;99.90
7360;DHT22;3720;48.274;7.796;2024-03-23T02:17:28;13.90;99.90
7360;DHT22;3720;48.274;7.796;2024-03-23T02:19:59;13.80;99.90
7360;DHT22;3720;48.274;7.796;2024-03-23T02:22:36;13.60;99.90
7360;DHT22;3720;48.274;7.796;2024-03-23T02:25:09;13.60;99.90
7360;DHT22;3720;48.274;7.796;2024-03-23T02:27:40;13.50;99.90
7360;DHT22;3720;48.274;7.796;2024-03-23T02:30:11;13.50;99.90
7360;DHT22;3720;48.274;7.796;2024-03-23T02:32:43;13.50;99.90
7360;DHT22;3720;48.274;7.796;2024-03-23T02:35:14;13.40;99.90
7360;DHT22;3720;48.274;7.796;2024-03-23T02:37:46;13.50;99.90
7360;DHT22;3720;48.274;7.796;2024-03-23T02:40:19;13.50;99.90
7360;DHT22;3720;48.274;7.796;2024-03-23T02:42:51;13.50;99.90
7360;DHT22;3720;48.274;7.796;2024-03-23T02:45:22;13.40;99.90
7360;DHT22;3720;48.274;7.796;2024-03-23T02:47:54;13.50;99.90
7360;DHT22;3720;48.274;7.796;2024-03-23T02:50:24;13.40;99.90
7360;DHT22;3720;48.274;7.796;2024-03-23T02:52:56;13.40;99.90
7360;DHT22;3720;48.274;7.796;2024-03-23T02:55:28;13.40;99.90
7360;DHT22;3720;48.274;7.796;2024-03-23T02:58:00;13.30;99.90
7360;DHT22;3720;48.274;7.796;2024-03-23T03:00:32;13.30;99.90
7360;DHT22;3720;48.274;7.796;2024-03-23T03:03:04;13.30;99.90
7360;DHT22;3720;48.274;7.796;2024-03-23T03:05:35;13.30;99.90
7360;DHT22;3720;48.274;7.796;2024-03-23T03:08:07;13.30;99.90
7360;DHT22;3720;48.274;7.796;2024-03-23T03:10:39;13.40;99.90
7360;DHT22;3720;48.274;7.796;2024-03-23T03:13:11;13.20;99.90
7360;DHT22;3720;48.274;7.796;2024-03-23T03:15:43;13.30;99.90
7360;DHT22;3720;48.274;7.796;2024-03-23T03:18:16;13.20;99.90
7360;DHT22;3720;48.274;7.796;2024-03-23T03:20:47;13.20;99.90
7360;DHT22;3720;48.274;7.796;2024-03-23T03:23:19;13.20;99.90
7360;DHT22;3720;48.274;7.796;2024-03-23T03:25:52;13.20;99.90
7360;DHT22;3720;48.274;7.796;2024-03-23T03:28:23;13.30;99.90
7360;DHT22;3720;48.274;7.796;2024-03-23T03:30:56;13.50;99.90
7360;DHT22;3720;48.274;7.796;2024-03-23T03:33:27;13.60;99.90
7360;DHT22;3720;48.274;7.796;2024-03-23T03:35:59;13.70;99.90
7360;DHT22;3720;48.274;7.796;2024-03-23T03:38:30;13.70;99.90
7360;DHT22;3720;48.274;7.796;2024-03-23T03:41:04;13.70;99.90
7360;DHT22;3720;48.274;7.796;2024-03-23T03:43:36;13.70;99.90
7360;DHT22;3720;48.274;7.796;2024-03-23T03:46:08;13.60;99.90
7360;DHT22;3720;48.274;7.796;2024-03-23T03:48:40;13.60;99.90
7360;DHT22;3720;48.274;7.796;2024-03-23T03:51:12;13.60;99.90
7360;DHT22;3720;48.274;7.796;2024-03-23T03:53:42;13.60;99.90
7360;DHT22;3720;48.274;7.796;2024-03-23T03:56:16;13.50;99.90
7360;DHT22;3720;48.274;7.796;2024-03-23T03:58:46;13.50;99.90
7360;DHT22;3720;48.274;7.796;2024-03-23T04:01:18;13.50;99.90
7360;DHT22;3720;48.274;7.796;2024-03-23T04:03:49;13.50;99.90
7360;DHT22;3720;48.274;7.796;2024-03-23T04:06:21;13.50;99.90
7360;DHT22;3720;48.274;7.796;2024-03-23T04:08:52;13.40;99.90
7360;DHT22;3720;48.274;7.796;2024-03-23T04:11:26;13.40;99.90
7360;DHT22;3720;48.274;7.796;2024-03-23T04:13:56;13.30;99.90
7360;DHT22;3720;48.274;7.796;2024-03-23T04:16:29;13.20;99.90
7360;DHT22;3720;48.274;7.796;2024-03-23T04:19:00;13.20;99.90
7360;DHT22;3720;48.274;7.796;2024-03-23T04:21:32;13.20;99.90
7360;DHT22;3720;48.274;7.796;2024-03-23T04:24:03;13.20;99.90
7360;DHT22;3720;48.274;7.796;2024-03-23T04:26:42;13.20;99.90
7360;DHT22;3720;48.274;7.796;2024-03-23T04:29:12;13.20;99.90
7360;DHT22;3720;48.274;7.796;2024-03-23T04:31:44;13.10;99.90
7360;DHT22;3720;48.274;7.796;2024-03-23T04:34:15;13.00;99.90
7360;DHT22;3720;48.274;7.796;2024-03-23T04:36:47;12.80;99.90
7360;DHT22;3720;48.274;7.796;2024-03-23T04:39:18;12.60;99.90
7360;DHT22;3720;48.274;7.796;2024-03-23T04:41:51;12.50;99.90
7360;DHT22;3720;48.274;7.796;2024-03-23T04:44:23;12.30;99.90
7360;DHT22;3720;48.274;7.796;2024-03-23T04:46:55;12.20;99.90
7360;DHT22;3720;48.274;7.796;2024-03-23T04:49:26;12.10;99.90
7360;DHT22;3720;48.274;7.796;2024-03-23T04:51:58;12.00;99.90
7360;DHT22;3720;48.274;7.796;2024-03-23T04:54:30;12.00;99.90
7360;DHT22;3720;48.274;7.796;2024-03-23T04:57:04;12.00;99.90
7360;DHT22;3720;48.274;7.796;2024-03-23T04:59:36;12.00;99.90
7360;DHT22;3720;48.274;7.796;2024-03-23T05:02:07;12.00;99.90
7360;DHT22;3720;48.274;7.796;2024-03-23T05:04:39;12.00;99.90
7360;DHT22;3720;48.274;7.796;2024-03-23T05:07:11;12.00;99.90
7360;DHT22;3720;48.274;7.796;2024-03-23T05:09:42;11.90;99.90
7360;DHT22;3720;48.274;7.796;2024-03-23T05:12:15;11.90;99.90
7360;DHT22;3720;48.274;7.796;2024-03-23T05:14:46;11.90;99.90
7360;DHT22;3720;48.274;7.796;2024-03-23T05:17:18;11.90;99.90
7360;DHT22;3720;48.274;7.796;2024-03-23T05:19:49;11.90;99.90
7360;DHT22;3720;48.274;7.796;2024-03-23T05:22:20;11.90;99.90
7360;DHT22;3720;48.274;7.796;2024-03-23T05:24:52;11.80;99.90
7360;DHT22;3720;48.274;7.796;2024-03-23T05:27:24;11.80;99.90
7360;DHT22;3720;48.274;7.796;2024-03-23T05:29:56;11.90;99.90
7360;DHT22;3720;48.274;7.796;2024-03-23T05:32:27;11.90;99.90
7360;DHT22;3720;48.274;7.796;2024-03-23T05:34:59;12.00;99.90
7360;DHT22;3720;48.274;7.796;2024-03-23T05:37:29;12.00;99.90
7360;DHT22;3720;48.274;7.796;2024-03-23T05:40:05;12.00;99.90
7360;DHT22;3720;48.274;7.796;2024-03-23T05:42:37;12.00;99.90
7360;DHT22;3720;48.274;7.796;2024-03-23T05:45:09;11.90;99.90
7360;DHT22;3720;48.274;7.796;2024-03-23T05:47:40;11.80;99.90
7360;DHT22;3720;48.274;7.796;2024-03-23T05:50:12;11.70;99.90
7360;DHT22;3720;48.274;7.796;2024-03-23T05:52:43;11.60;99.90
7360;DHT22;3720;48.274;7.796;2024-03-23T05:55:15;11.50;99.90
7360;DHT22;3720;48.274;7.796;2024-03-23T05:57:47;11.30;99.90
7360;DHT22;3720;48.274;7.796;2024-03-23T06:00:19;11.20;99.90
7360;DHT22;3720;48.274;7.796;2024-03-23T06:02:50;11.10;99.90
7360;DHT22;3720;48.274;7.796;2024-03-23T06:05:22;11.00;99.90
7360;DHT22;3720;48.274;7.796;2024-03-23T06:07:54;10.90;99.90
7360;DHT22;3720;48.274;7.796;2024-03-23T06:10:26;10.80;99.90
7360;DHT22;3720;48.274;7.796;2024-03-23T06:12:58;10.70;99.90
7360;DHT22;3720;48.274;7.796;2024-03-23T06:15:30;10.80;99.90
7360;DHT22;3720;48.274;7.796;2024-03-23T06:18:02;10.80;99.90
7360;DHT22;3720;48.274;7.796;2024-03-23T06:20:34;10.70;99.90
7360;DHT22;3720;48.274;7.796;2024-03-23T06:23:05;10.70;99.90
7360;DHT22;3720;48.274;7.796;2024-03-23T06:25:37;10.60;99.90
7360;DHT22;3720;48.274;7.796;2024-03-23T06:28:10;10.60;99.90
7360;DHT22;3720;48.274;7.796;2024-03-23T06:30:42;10.60;99.90
7360;DHT22;3720;48.274;7.796;2024-03-23T06:33:13;10.60;99.90
7360;DHT22;3720;48.274;7.796;2024-03-23T06:35:50;10.50;99.90
7360;DHT22;3720;48.274;7.796;2024-03-23T06:38:21;10.50;99.90
7360;DHT22;3720;48.274;7.796;2024-03-23T06:40:52;10.60;99.90
7360;DHT22;3720;48.274;7.796;2024-03-23T06:43:25;10.50;99.90
7360;DHT22;3720;48.274;7.796;2024-03-23T06:45:57;10.50;99.90
7360;DHT22;3720;48.274;7.796;2024-03-23T06:48:28;10.50;99.90
7360;DHT22;3720;48.274;7.796;2024-03-23T06:50:59;10.40;99.90
7360;DHT22;3720;48.274;7.796;2024-03-23T06:53:30;10.50;99.90
7360;DHT22;3720;48.274;7.796;2024-03-23T06:56:02;10.40;99.90
7360;DHT22;3720;48.274;7.796;2024-03-23T06:58:35;10.40;99.90
7360;DHT22;3720;48.274;7.796;2024-03-23T07:01:06;10.40;99.90
7360;DHT22;3720;48.274;7.796;2024-03-23T07:03:37;10.40;99.90
7360;DHT22;3720;48.274;7.796;2024-03-23T07:06:09;10.30;99.90
7360;DHT22;3720;48.274;7.796;2024-03-23T07:08:40;10.30;99.90
7360;DHT22;3720;48.274;7.796;2024-03-23T07:11:12;10.20;99.90
7360;DHT22;3720;48.274;7.796;2024-03-23T07:13:51;10.20;99.90
7360;DHT22;3720;48.274;7.796;2024-03-23T07:16:26;10.20;99.90
7360;DHT22;3720;48.274;7.796;2024-03-23T07:18:57;10.20;99.90
7360;DHT22;3720;48.274;7.796;2024-03-23T07:21:29;10.30;99.90
7360;DHT22;3720;48.274;7.796;2024-03-23T07:24:00;10.20;99.90
7360;DHT22;3720;48.274;7.796;2024-03-23T07:26:32;10.20;99.90
7360;DHT22;3720;48.274;7.796;2024-03-23T07:29:04;10.20;99.90
7360;DHT22;3720;48.274;7.796;2024-03-23T07:31:36;10.20;99.90
7360;DHT22;3720;48.274;7.796;2024-03-23T07:34:06;10.20;99.90
7360;DHT22;3720;48.274;7.796;2024-03-23T07:36:38;10.20;99.90
7360;DHT22;3720;48.274;7.796;2024-03-23T07:39:09;10.10;99.90
7360;DHT22;3720;48.274;7.796;2024-03-23T07:41:44;10.10;99.90
7360;DHT22;3720;48.274;7.796;2024-03-23T07:44:17;10.10;99.90
7360;DHT22;3720;48.274;7.796;2024-03-23T07:46:48;10.20;99.90
7360;DHT22;3720;48.274;7.796;2024-03-23T07:49:19;10.30;99.90
7360;DHT22;3720;48.274;7.796;2024-03-23T07:51:51;10.30;99.90
7360;DHT22;3720;48.274;7.796;2024-03-23T07:54:22;10.40;99.90
7360;DHT22;3720;48.274;7.796;2024-03-23T07:56:54;10.50;99.90
7360;DHT22;3720;48.274;7.796;2024-03-23T07:59:26;10.70;99.90
7360;DHT22;3720;48.274;7.796;2024-03-23T08:02:01;10.80;99.90
7360;DHT22;3720;48.274;7.796;2024-03-23T08:04:32;10.90;99.90
7360;DHT22;3720;48.274;7.796;2024-03-23T08:07:04;10.90;99.90
7360;DHT22;3720;48.274;7.796;2024-03-23T08:09:35;10.90;99.90
7360;DHT22;3720;48.274;7.796;2024-03-23T08:12:07;10.80;99.90
7360;DHT22;3720;48.274;7.796;2024-03-23T08:14:39;10.60;99.90
7360;DHT22;3720;48.274;7.796;2024-03-23T08:17:11;10.60;99.90
7360;DHT22;3720;48.274;7.796;2024-03-23T08:19:42;10.50;99.90
7360;DHT22;3720;48.274;7.796;2024-03-23T08:22:14;10.40;99.90
7360;DHT22;3720;48.274;7.796;2024-03-23T08:24:45;10.30;99.90
7360;DHT22;3720;48.274;7.796;2024-03-23T08:27:17;10.30;99.90
7360;DHT22;3720;48.274;7.796;2024-03-23T08:29:49;10.30;99.90
7360;DHT22;3720;48.274;7.796;2024-03-23T08:32:21;10.30;99.90
7360;DHT22;3720;48.274;7.796;2024-03-23T08:34:52;10.40;99.90
7360;DHT22;3720;48.274;7.796;2024-03-23T08:37:23;10.50;99.90
7360;DHT22;3720;48.274;7.796;2024-03-23T08:39:55;10.60;99.90
7360;DHT22;3720;48.274;7.796;2024-03-23T08:42:27;10.70;99.90
7360;DHT22;3720;48.274;7.796;2024-03-23T08:44:59;10.90;99.90
7360;DHT22;3720;48.274;7.796;2024-03-23T08:47:34;11.00;99.90
7360;DHT22;3720;48.274;7.796;2024-03-23T08:50:05;11.10;99.90
7360;DHT22;3720;48.274;7.796;2024-03-23T08:52:37;11.10;99.90
7360;DHT22;3720;48.274;7.796;2024-03-23T08:55:08;10.80;99.90
7360;DHT22;3720;48.274;7.796;2024-03-23T08:57:41;10.70;99.90
7360;DHT22;3720;48.274;7.796;2024-03-23T09:00:15;10.60;99.90
7360;DHT22;3720;48.274;7.796;2024-03-23T09:02:47;10.70;99.90
7360;DHT22;3720;48.274;7.796;2024-03-23T09:05:19;10.70;99.90
7360;DHT22;3720;48.274;7.796;2024-03-23T09:07:50;10.70;99.90
7360;DHT22;3720;48.274;7.796;2024-03-23T09:10:22;10.80;99.90
7360;DHT22;3720;48.274;7.796;2024-03-23T09:12:53;10.80;99.90
7360;DHT22;3720;48.274;7.796;2024-03-23T09:15:26;10.80;99.90
7360;DHT22;3720;48.274;7.796;2024-03-23T09:17:58;10.80;99.90
7360;DHT22;3720;48.274;7.796;2024-03-23T09:20:32;10.80;99.90
7360;DHT22;3720;48.274;7.796;2024-03-23T09:23:04;11.00;99.90
7360;DHT22;3720;48.274;7.796;2024-03-23T09:25:39;11.00;99.90
7360;DHT22;3720;48.274;7.796;2024-03-23T09:28:10;11.10;99.90
7360;DHT22;3720;48.274;7.796;2024-03-23T09:30:43;11.20;99.90
7360;DHT22;3720;48.274;7.796;2024-03-23T09:33:14;11.40;99.90
7360;DHT22;3720;48.274;7.796;2024-03-23T09:35:46;11.50;99.90
7360;DHT22;3720;48.274;7.796;2024-03-23T09:38:17;11.60;99.90
7360;DHT22;3720;48.274;7.796;2024-03-23T09:40:53;11.70;99.90
7360;DHT22;3720;48.274;7.796;2024-03-23T09:43:24;11.80;99.90
7360;DHT22;3720;48.274;7.796;2024-03-23T09:45:57;11.70;99.90
7360;DHT22;3720;48.274;7.796;2024-03-23T09:48:28;11.70;99.90
7360;DHT22;3720;48.274;7.796;2024-03-23T09:51:00;11.60;99.90
7360;DHT22;3720;48.274;7.796;2024-03-23T09:53:32;11.50;99.90
7360;DHT22;3720;48.274;7.796;2024-03-23T09:56:05;11.40;99.90
7360;DHT22;3720;48.274;7.796;2024-03-23T09:58:35;11.30;99.90
7360;DHT22;3720;48.274;7.796;2024-03-23T10:01:09;11.20;99.90
7360;DHT22;3720;48.274;7.796;2024-03-23T10:03:44;11.30;99.90
7360;DHT22;3720;48.274;7.796;2024-03-23T10:06:21;11.30;99.90
7360;DHT22;3720;48.274;7.796;2024-03-23T10:08:53;11.30;99.90
7360;DHT22;3720;48.274;7.796;2024-03-23T10:11:25;11.10;99.90
7360;DHT22;3720;48.274;7.796;2024-03-23T10:13:57;10.90;99.90
7360;DHT22;3720;48.274;7.796;2024-03-23T10:16:30;10.60;99.90
7360;DHT22;3720;48.274;7.796;2024-03-23T10:19:01;10.40;99.90
7360;DHT22;3720;48.274;7.796;2024-03-23T10:21:33;9.90;99.90
7360;DHT22;3720;48.274;7.796;2024-03-23T10:24:08;9.30;99.90
7360;DHT22;3720;48.274;7.796;2024-03-23T10:26:40;8.80;99.90
7360;DHT22;3720;48.274;7.796;2024-03-23T10:29:11;8.10;99.90
7360;DHT22;3720;48.274;7.796;2024-03-23T10:31:44;7.50;99.90
7360;DHT22;3720;48.274;7.796;2024-03-23T10:34:25;7.20;99.90
7360;DHT22;3720;48.274;7.796;2024-03-23T10:36:58;7.20;99.90
7360;DHT22;3720;48.274;7.796;2024-03-23T10:39:31;7.10;99.90
7360;DHT22;3720;48.274;7.796;2024-03-23T10:42:05;7.20;99.90
7360;DHT22;3720;48.274;7.796;2024-03-23T10:44:36;7.40;99.90
7360;DHT22;3720;48.274;7.796;2024-03-23T10:47:10;7.50;99.90
7360;DHT22;3720;48.274;7.796;2024-03-23T10:49:41;7.70;99.90
7360;DHT22;3720;48.274;7.796;2024-03-23T10:52:13;7.90;99.90
7360;DHT22;3720;48.274;7.796;2024-03-23T10:54:45;8.10;99.90
7360;DHT22;3720;48.274;7.796;2024-03-23T10:57:23;8.20;99.90
7360;DHT22;3720;48.274;7.796;2024-03-23T10:59:54;8.40;99.90
7360;DHT22;3720;48.274;7.796;2024-03-23T11:02:27;8.50;99.90
7360;DHT22;3720;48.274;7.796;2024-03-23T11:05:00;8.50;99.90
7360;DHT22;3720;48.274;7.796;2024-03-23T11:07:32;8.60;99.90
7360;DHT22;3720;48.274;7.796;2024-03-23T11:10:24;8.60;99.90
7360;DHT22;3720;48.274;7.796;2024-03-23T11:12:56;8.70;99.90
7360;DHT22;3720;48.274;7.796;2024-03-23T11:15:27;8.80;99.90
7360;DHT22;3720;48.274;7.796;2024-03-23T11:18:05;9.10;99.90
7360;DHT22;3720;48.274;7.796;2024-03-23T11:20:38;9.50;99.90
7360;DHT22;3720;48.274;7.796;2024-03-23T11:23:27;9.70;99.90
7360;DHT22;3720;48.274;7.796;2024-03-23T11:25:58;9.70;99.90
7360;DHT22;3720;48.274;7.796;2024-03-23T11:28:30;9.60;99.90
7360;DHT22;3720;48.274;7.796;2024-03-23T11:31:01;9.70;99.90
7360;DHT22;3720;48.274;7.796;2024-03-23T11:33:34;10.00;99.90
7360;DHT22;3720;48.274;7.796;2024-03-23T11:36:05;10.50;99.90
7360;DHT22;3720;48.274;7.796;2024-03-23T11:38:38;11.00;99.90
7360;DHT22;3720;48.274;7.796;2024-03-23T11:41:09;11.20;99.90
7360;DHT22;3720;48.274;7.796;2024-03-23T11:43:41;11.30;99.90
7360;DHT22;3720;48.274;7.796;2024-03-23T11:46:11;11.70;99.90
7360;DHT22;3720;48.274;7.796;2024-03-23T11:48:54;12.00;99.90
7360;DHT22;3720;48.274;7.796;2024-03-23T11:51:25;12.20;99.90
7360;DHT22;3720;48.274;7.796;2024-03-23T11:54:07;12.30;99.90
7360;DHT22;3720;48.274;7.796;2024-03-23T11:56:38;12.30;99.90
7360;DHT22;3720;48.274;7.796;2024-03-23T11:59:10;12.30;99.90
7360;DHT22;3720;48.274;7.796;2024-03-23T12:01:41;12.50;99.90
7360;DHT22;3720;48.274;7.796;2024-03-23T12:04:25;12.70;99.90
7360;DHT22;3720;48.274;7.796;2024-03-23T12:07:12;13.10;99.90
7360;DHT22;3720;48.274;7.796;2024-03-23T12:09:44;13.30;99.90
7360;DHT22;3720;48.274;7.796;2024-03-23T12:12:17;13.00;99.90
7360;DHT22;3720;48.274;7.796;2024-03-23T12:15:01;12.70;99.90
7360;DHT22;3720;48.274;7.796;2024-03-23T12:17:33;12.30;99.90
7360;DHT22;3720;48.274;7.796;2024-03-23T12:20:09;12.00;99.90
7360;DHT22;3720;48.274;7.796;2024-03-23T12:22:40;11.60;99.90
7360;DHT22;3720;48.274;7.796;2024-03-23T12:25:11;11.40;99.90
7360;DHT22;3720;48.274;7.796;2024-03-23T12:27:42;11.10;99.90
7360;DHT22;3720;48.274;7.796;2024-03-23T12:30:14;10.80;99.90
7360;DHT22;3720;48.274;7.796;2024-03-23T12:32:45;10.60;99.90
7360;DHT22;3720;48.274;7.796;2024-03-23T12:35:18;10.50;99.90
7360;DHT22;3720;48.274;7.796;2024-03-23T12:37:49;10.50;99.90
7360;DHT22;3720;48.274;7.796;2024-03-23T12:40:21;11.00;99.90
7360;DHT22;3720;48.274;7.796;2024-03-23T12:42:52;11.50;99.90
7360;DHT22;3720;48.274;7.796;2024-03-23T12:45:23;12.00;99.90
7360;DHT22;3720;48.274;7.796;2024-03-23T12:47:54;12.40;99.90
7360;DHT22;3720;48.274;7.796;2024-03-23T12:50:27;12.60;99.90
7360;DHT22;3720;48.274;7.796;2024-03-23T12:52:58;12.80;99.90
7360;DHT22;3720;48.274;7.796;2024-03-23T12:55:31;13.00;99.90
7360;DHT22;3720;48.274;7.796;2024-03-23T12:58:02;13.20;99.90
7360;DHT22;3720;48.274;7.796;2024-03-23T13:00:34;13.20;99.90
7360;DHT22;3720;48.274;7.796;2024-03-23T13:03:04;13.30;99.90
7360;DHT22;3720;48.274;7.796;2024-03-23T13:05:38;13.40;99.90
7360;DHT22;3720;48.274;7.796;2024-03-23T13:08:08;13.20;99.90
7360;DHT22;3720;48.274;7.796;2024-03-23T13:10:40;13.30;99.90
7360;DHT22;3720;48.274;7.796;2024-03-23T13:13:11;13.30;99.90
7360;DHT22;3720;48.274;7.796;2024-03-23T13:15:49;13.50;99.90
7360;DHT22;3720;48.274;7.796;2024-03-23T13:18:20;13.30;99.90
7360;DHT22;3720;48.274;7.796;2024-03-23T13:20:53;13.50;99.90
7360;DHT22;3720;48.274;7.796;2024-03-23T13:23:24;13.60;99.90
7360;DHT22;3720;48.274;7.796;2024-03-23T13:25:56;13.90;99.90
7360;DHT22;3720;48.274;7.796;2024-03-23T13:28:27;14.10;99.90
7360;DHT22;3720;48.274;7.796;2024-03-23T13:30:59;14.10;99.90
7360;DHT22;3720;48.274;7.796;2024-03-23T13:33:34;13.70;99.90
7360;DHT22;3720;48.274;7.796;2024-03-23T13:36:08;13.20;99.90
7360;DHT22;3720;48.274;7.796;2024-03-23T13:38:39;12.80;99.90
7360;DHT22;3720;48.274;7.796;2024-03-23T13:41:11;12.40;99.90
7360;DHT22;3720;48.274;7.796;2024-03-23T13:43:42;11.90;99.90
7360;DHT22;3720;48.274;7.796;2024-03-23T13:46:14;11.70;99.90
7360;DHT22;3720;48.274;7.796;2024-03-23T13:48:45;11.60;99.90
7360;DHT22;3720;48.274;7.796;2024-03-23T13:51:23;11.60;99.90
7360;DHT22;3720;48.274;7.796;2024-03-23T13:53:55;11.60;99.90
7360;DHT22;3720;48.274;7.796;2024-03-23T13:56:31;11.60;99.90
7360;DHT22;3720;48.274;7.796;2024-03-23T13:59:02;11.70;99.90
7360;DHT22;3720;48.274;7.796;2024-03-23T14:01:34;11.70;99.90
7360;DHT22;3720;48.274;7.796;2024-03-23T14:04:05;11.60;99.90
7360;DHT22;3720;48.274;7.796;2024-03-23T14:06:38;11.50;99.90
7360;DHT22;3720;48.274;7.796;2024-03-23T14:09:10;11.30;99.90
7360;DHT22;3720;48.274;7.796;2024-03-23T14:11:41;11.20;99.90
7360;DHT22;3720;48.274;7.796;2024-03-23T14:14:14;11.20;99.90
7360;DHT22;3720;48.274;7.796;2024-03-23T14:16:47;11.10;99.90
7360;DHT22;3720;48.274;7.796;2024-03-23T14:19:20;11.10;99.90
7360;DHT22;3720;48.274;7.796;2024-03-23T14:21:52;11.00;99.90
7360;DHT22;3720;48.274;7.796;2024-03-23T14:24:24;10.90;99.90
7360;DHT22;3720;48.274;7.796;2024-03-23T14:26:55;10.80;99.90
7360;DHT22;3720;48.274;7.796;2024-03-23T14:29:27;10.70;99.90
7360;DHT22;3720;48.274;7.796;2024-03-23T14:31:58;10.50;99.90
7360;DHT22;3720;48.274;7.796;2024-03-23T14:34:30;10.30;99.90
7360;DHT22;3720;48.274;7.796;2024-03-23T14:37:02;10.30;99.90
7360;DHT22;3720;48.274;7.796;2024-03-23T14:39:35;10.30;99.90
7360;DHT22;3720;48.274;7.796;2024-03-23T14:42:08;10.20;99.90
7360;DHT22;3720;48.274;7.796;2024-03-23T14:44:39;10.20;99.90
7360;DHT22;3720;48.274;7.796;2024-03-23T14:47:10;10.20;99.90
7360;DHT22;3720;48.274;7.796;2024-03-23T14:49:43;10.30;99.90
7360;DHT22;3720;48.274;7.796;2024-03-23T14:52:19;10.30;99.90
7360;DHT22;3720;48.274;7.796;2024-03-23T14:54:51;10.30;99.90
7360;DHT22;3720;48.274;7.796;2024-03-23T14:57:22;10.30;99.90
7360;DHT22;3720;48.274;7.796;2024-03-23T14:59:53;10.20;99.90
7360;DHT22;3720;48.274;7.796;2024-03-23T15:02:24;10.10;99.90
7360;DHT22;3720;48.274;7.796;2024-03-23T15:04:58;10.00;99.90
7360;DHT22;3720;48.274;7.796;2024-03-23T15:07:30;9.80;99.90
7360;DHT22;3720;48.274;7.796;2024-03-23T15:10:02;9.60;99.90
7360;DHT22;3720;48.274;7.796;2024-03-23T15:12:35;9.40;99.90
7360;DHT22;3720;48.274;7.796;2024-03-23T15:15:07;9.30;99.90
7360;DHT22;3720;48.274;7.796;2024-03-23T15:17:38;9.10;99.90
7360;DHT22;3720;48.274;7.796;2024-03-23T15:20:11;9.00;99.90
7360;DHT22;3720;48.274;7.796;2024-03-23T15:22:44;8.90;99.90
7360;DHT22;3720;48.274;7.796;2024-03-23T15:25:16;8.80;99.90
7360;DHT22;3720;48.274;7.796;2024-03-23T15:27:47;8.70;99.90
7360;DHT22;3720;48.274;7.796;2024-03-23T15:30:19;8.60;99.90
7360;DHT22;3720;48.274;7.796;2024-03-23T15:32:50;8.60;99.90
7360;DHT22;3720;48.274;7.796;2024-03-23T15:35:22;8.50;99.90
7360;DHT22;3720;48.274;7.796;2024-03-23T15:37:55;8.60;99.90
7360;DHT22;3720;48.274;7.796;2024-03-23T15:40:27;8.50;99.90
7360;DHT22;3720;48.274;7.796;2024-03-23T15:42:58;8.60;99.90
7360;DHT22;3720;48.274;7.796;2024-03-23T15:45:29;8.60;99.90
7360;DHT22;3720;48.274;7.796;2024-03-23T15:48:00;8.80;99.90
7360;DHT22;3720;48.274;7.796;2024-03-23T15:50:32;8.90;99.90
7360;DHT22;3720;48.274;7.796;2024-03-23T15:53:04;9.10;99.90
7360;DHT22;3720;48.274;7.796;2024-03-23T15:55:37;9.10;99.90
7360;DHT22;3720;48.274;7.796;2024-03-23T15:58:09;9.20;99.90
7360;DHT22;3720;48.274;7.796;2024-03-23T16:00:40;9.30;99.90
7360;DHT22;3720;48.274;7.796;2024-03-23T16:03:11;9.30;99.90
7360;DHT22;3720;48.274;7.796;2024-03-23T16:05:50;9.30;99.90
7360;DHT22;3720;48.274;7.796;2024-03-23T16:08:23;9.40;99.90
7360;DHT22;3720;48.274;7.796;2024-03-23T16:10:59;9.40;99.90
7360;DHT22;3720;48.274;7.796;2024-03-23T16:13:31;9.50;99.90
7360;DHT22;3720;48.274;7.796;2024-03-23T16:16:04;9.50;99.90
7360;DHT22;3720;48.274;7.796;2024-03-23T16:18:38;9.50;99.90
7360;DHT22;3720;48.274;7.796;2024-03-23T16:21:10;9.60;99.90
7360;DHT22;3720;48.274;7.796;2024-03-23T16:23:42;9.60;99.90
7360;DHT22;3720;48.274;7.796;2024-03-23T16:26:15;9.60;99.90
7360;DHT22;3720;48.274;7.796;2024-03-23T16:28:47;9.60;99.90
7360;DHT22;3720;48.274;7.796;2024-03-23T16:31:19;9.60;99.90
7360;DHT22;3720;48.274;7.796;2024-03-23T16:33:50;9.50;99.90
7360;DHT22;3720;48.274;7.796;2024-03-23T16:36:23;9.50;99.90
7360;DHT22;3720;48.274;7.796;2024-03-23T16:38:56;9.30;99.90
7360;DHT22;3720;48.274;7.796;2024-03-23T16:41:28;9.20;99.90
7360;DHT22;3720;48.274;7.796;2024-03-23T16:43:59;9.10;99.90
7360;DHT22;3720;48.274;7.796;2024-03-23T16:46:31;8.90;99.90
7360;DHT22;3720;48.274;7.796;2024-03-23T16:49:02;8.80;99.90
7360;DHT22;3720;48.274;7.796;2024-03-23T16:51:33;8.60;99.90
7360;DHT22;3720;48.274;7.796;2024-03-23T16:54:06;8.50;99.90
7360;DHT22;3720;48.274;7.796;2024-03-23T16:56:38;8.50;99.90
7360;DHT22;3720;48.274;7.796;2024-03-23T16:59:09;8.40;99.90
7360;DHT22;3720;48.274;7.796;2024-03-23T17:01:40;8.40;99.90
7360;DHT22;3720;48.274;7.796;2024-03-23T17:04:12;8.40;99.90
7360;DHT22;3720;48.274;7.796;2024-03-23T17:06:43;8.40;99.90
7360;DHT22;3720;48.274;7.796;2024-03-23T17:09:16;8.50;99.90
7360;DHT22;3720;48.274;7.796;2024-03-23T17:11:47;8.50;99.90
7360;DHT22;3720;48.274;7.796;2024-03-23T17:14:19;8.40;99.90
7360;DHT22;3720;48.274;7.796;2024-03-23T17:16:51;8.50;99.90
7360;DHT22;3720;48.274;7.796;2024-03-23T17:19:22;8.50;99.90
7360;DHT22;3720;48.274;7.796;2024-03-23T17:21:57;8.50;99.90
7360;DHT22;3720;48.274;7.796;2024-03-23T17:24:29;8.40;99.90
7360;DHT22;3720;48.274;7.796;2024-03-23T17:27:02;8.50;99.90
7360;DHT22;3720;48.274;7.796;2024-03-23T17:29:33;8.40;99.90